SBTT/TBT METAR and TAF weather

Enter ICAO airport designator
Station Type Date Time Source
SBTT METAR 2019/02/20 23:00 UTC NOAA

SBTT 202300Z 00000KT CAVOK 29/24 Q1007


Station Type Date Time Source
SBTT Decoded METAR 2019/02/20 23:00 UTC NOAA

Tabatinga, Brazil (SBTT) 03-40S 069-40W
Feb 20, 2019 - 06:00 PM EST / 2019.02.20 2300 UTC
Wind: Calm:0
Visibility: greater than 7 mile(s):0
Temperature: 84 F (29 C)
Dew Point: 75 F (24 C)
Relative Humidity: 74%
Pressure (altimeter): 29.74 in. Hg (1007 hPa)
ob: SBTT 202300Z 00000KT CAVOK 29/24 Q1007
cycle: 23

Station Type Date Time Source
SBTT TAF 2019/02/20 18:56 UTC NOAA

TAF SBTT 201600Z 2018/2118 26005KT 9999 SCT020 FEW025TCU TX29/2019Z T N22/2109Z
BECMG 2023/2101 CAVOK
BECMG 2102/2104 09005KT 9999 SCT008 PROB30 211 1/2113 BKN008
BECMG 2116/2118 12005KT 8000 SCT020 FEW025TCU
RMK PCQ


Example: see airport list